createdAt,value
2023-01-23T00:01:38.465Z,100248.50
2023-01-23T00:04:06.886Z,100253.56
2023-01-23T00:06:36.415Z,100244.66
2023-01-23T00:09:05.045Z,100256.91
2023-01-23T00:11:34.032Z,100248.78
2023-01-23T00:14:03.658Z,100250.56
2023-01-23T00:16:33.911Z,100245.63
2023-01-23T00:19:02.144Z,100244.34
2023-01-23T00:21:31.249Z,100250.22
2023-01-23T00:24:02.320Z,100254.34
2023-01-23T00:26:33.971Z,100256.56
2023-01-23T00:29:02.499Z,100251.66
2023-01-23T00:31:32.241Z,100261.03
2023-01-23T00:34:02.592Z,100254.19
2023-01-23T00:36:32.476Z,100253.72
2023-01-23T00:39:02.411Z,100249.44
2023-01-23T00:41:30.611Z,100256.75
2023-01-23T00:43:58.799Z,100266.59
2023-01-23T00:46:27.211Z,100265.81
2023-01-23T00:48:55.316Z,100264.84
2023-01-23T00:51:23.677Z,100269.63
2023-01-23T00:53:52.029Z,100274.06
2023-01-23T00:56:21.584Z,100285.56
2023-01-23T00:58:49.752Z,100286.47
2023-01-23T01:01:19.087Z,100285.50
2023-01-23T01:03:47.338Z,100282.00
2023-01-23T01:06:15.631Z,100273.25
2023-01-23T01:08:43.947Z,100285.66
2023-01-23T01:11:12.120Z,100285.00
2023-01-23T01:13:41.833Z,100294.25
2023-01-23T01:16:10.799Z,100288.53
2023-01-23T01:18:39.682Z,100289.31
2023-01-23T01:21:09.150Z,100295.50
2023-01-23T01:23:37.681Z,100300.91
2023-01-23T01:26:06.875Z,100300.44
2023-01-23T01:28:36.890Z,100304.72
2023-01-23T01:31:09.186Z,100320.94
2023-01-23T01:33:38.853Z,100310.94
2023-01-23T01:36:11.018Z,100306.47
2023-01-23T01:38:39.675Z,100311.72
2023-01-23T01:41:08.678Z,100301.53
2023-01-23T01:43:37.297Z,100313.13
2023-01-23T01:46:18.425Z,100310.94
2023-01-23T01:48:52.892Z,100305.97
2023-01-23T01:51:25.889Z,100314.56
2023-01-23T01:54:00.283Z,100306.31
2023-01-23T01:56:30.333Z,100311.06
2023-01-23T01:58:59.635Z,100300.56
2023-01-23T02:01:29.825Z,100318.38
2023-01-23T02:03:58.921Z,100311.56
2023-01-23T02:06:27.693Z,100311.56
2023-01-23T02:09:04.004Z,100311.56
2023-01-23T02:11:32.205Z,100307.09
2023-01-23T02:14:00.280Z,100311.38
2023-01-23T02:16:33.004Z,100307.88
2023-01-23T02:19:04.045Z,100306.31
2023-01-23T02:21:32.219Z,100297.25
2023-01-23T02:24:14.305Z,100308.22
2023-01-23T02:26:45.892Z,100300.75
2023-01-23T02:29:14.919Z,100308.22
2023-01-23T02:31:45.339Z,100312.34
2023-01-23T02:34:14.881Z,100310.13
2023-01-23T02:36:46.934Z,100311.88
2023-01-23T02:39:17.533Z,100311.72
2023-01-23T02:41:49.489Z,100312.34
2023-01-23T02:44:21.292Z,100301.34
2023-01-23T02:46:49.352Z,100313.28
2023-01-23T02:49:17.415Z,100308.81
2023-01-23T02:51:45.580Z,100317.88
2023-01-23T02:54:13.662Z,100317.88
2023-01-23T02:56:42.699Z,100322.00
2023-01-23T02:59:30.032Z,100325.63
2023-01-23T03:01:58.952Z,100322.00
2023-01-23T03:04:27.385Z,100319.66
2023-01-23T03:06:55.491Z,100320.44
2023-01-23T03:09:23.855Z,100315.50
2023-01-23T03:11:52.290Z,100327.75
2023-01-23T03:14:23.420Z,100325.84
2023-01-23T03:16:53.800Z,100324.09
2023-01-23T03:19:24.398Z,100328.41
2023-01-23T03:21:52.891Z,100326.78
2023-01-23T03:24:21.870Z,100325.84
2023-01-23T03:26:51.139Z,100334.75
2023-01-23T03:29:36.330Z,100328.84
2023-01-23T03:32:04.802Z,100334.75
2023-01-23T03:34:32.933Z,100331.88
2023-01-23T03:37:01.561Z,100333.16
2023-01-23T03:39:46.992Z,100332.53
2023-01-23T03:42:15.422Z,100323.59
2023-01-23T03:44:45.130Z,100329.78
2023-01-23T03:47:13.262Z,100334.56
2023-01-23T03:49:41.989Z,100335.19
2023-01-23T03:52:10.333Z,100329.00
2023-01-23T03:54:38.453Z,100327.06
2023-01-23T03:57:06.517Z,100335.66
2023-01-23T03:59:34.811Z,100337.06
2023-01-23T04:02:05.433Z,100337.69
2023-01-23T04:04:34.677Z,100341.53
2023-01-23T04:07:04.842Z,100336.56
2023-01-23T04:09:32.911Z,100348.59
2023-01-23T04:12:01.856Z,100348.59
2023-01-23T04:14:35.458Z,100356.56
2023-01-23T04:17:05.737Z,100355.56
2023-01-23T04:19:34.610Z,100363.03
2023-01-23T04:22:03.041Z,100361.75
2023-01-23T04:24:31.115Z,100358.88
2023-01-23T04:26:59.212Z,100365.06
2023-01-23T04:29:27.306Z,100371.44
2023-01-23T04:31:55.320Z,100365.06
2023-01-23T04:34:24.872Z,100377.09
2023-01-23T04:36:52.942Z,100376.19
2023-01-23T04:39:21.073Z,100385.38
2023-01-23T04:41:49.105Z,100390.56
2023-01-23T04:44:23.319Z,100379.41
2023-01-23T04:46:54.120Z,100387.81
2023-01-23T04:49:22.731Z,100379.09
2023-01-23T04:51:52.728Z,100391.00
2023-01-23T04:54:22.231Z,100386.34
2023-01-23T04:56:50.449Z,100397.78
2023-01-23T04:59:18.663Z,100394.88
2023-01-23T05:01:46.902Z,100391.25
2023-01-23T05:04:15.026Z,100395.81
2023-01-23T05:06:43.080Z,100397.41
2023-01-23T05:09:13.821Z,100390.47
2023-01-23T05:11:42.260Z,100407.50
2023-01-23T05:14:10.550Z,100414.03
2023-01-23T05:16:38.754Z,100414.03
2023-01-23T05:19:06.877Z,100411.50
2023-01-23T05:21:34.993Z,100431.91
2023-01-23T05:24:21.526Z,100417.31
2023-01-23T05:26:51.093Z,100432.91
2023-01-23T05:29:19.232Z,100437.63
2023-01-23T05:31:47.383Z,100434.72
2023-01-23T05:34:15.398Z,100443.31
2023-01-23T05:36:43.591Z,100436.13
2023-01-23T05:39:11.738Z,100436.13
2023-01-23T05:41:39.926Z,100437.34
2023-01-23T05:44:09.426Z,100445.13
2023-01-23T05:46:37.649Z,100447.72
2023-01-23T05:49:05.981Z,100442.19
2023-01-23T05:51:34.159Z,100458.06
2023-01-23T05:54:03.128Z,100454.38
2023-01-23T05:56:31.658Z,100452.00
2023-01-23T05:58:59.701Z,100457.97
2023-01-23T06:01:29.190Z,100460.59
2023-01-23T06:03:57.416Z,100460.88
2023-01-23T06:06:25.663Z,100482.44
2023-01-23T06:08:53.691Z,100472.47
2023-01-23T06:11:22.043Z,100473.56
2023-01-23T06:13:50.049Z,100495.16
2023-01-23T06:16:18.169Z,100484.47
2023-01-23T06:18:47.576Z,100477.06
2023-01-23T06:21:18.395Z,100497.06
2023-01-23T06:23:47.109Z,100504.94
2023-01-23T06:26:15.747Z,100498.63
2023-01-23T06:28:43.852Z,100511.50
2023-01-23T06:31:12.002Z,100507.34
2023-01-23T06:33:40.481Z,100503.63
2023-01-23T06:36:11.231Z,100517.00
2023-01-23T06:38:39.526Z,100507.63
2023-01-23T06:41:09.361Z,100518.63
2023-01-23T06:43:37.443Z,100521.78
2023-01-23T06:46:05.820Z,100532.09
2023-01-23T06:48:33.898Z,100532.09
2023-01-23T06:51:02.306Z,100537.41
2023-01-23T06:53:32.476Z,100523.09
2023-01-23T06:56:02.049Z,100528.47
2023-01-23T06:58:30.593Z,100545.34
2023-01-23T07:00:59.042Z,100536.88
2023-01-23T07:03:27.132Z,100536.66
2023-01-23T07:05:55.234Z,100541.75
2023-01-23T07:08:23.257Z,100545.75
2023-01-23T07:10:52.768Z,100536.19
2023-01-23T07:13:21.079Z,100533.22
2023-01-23T07:15:49.275Z,100542.66
2023-01-23T07:18:17.525Z,100540.97
2023-01-23T07:20:45.993Z,100538.88
2023-01-23T07:23:14.634Z,100546.38
2023-01-23T07:25:43.290Z,100545.59
2023-01-23T07:28:12.834Z,100542.38
2023-01-23T07:30:41.867Z,100544.16
2023-01-23T07:33:10.104Z,100537.38
2023-01-23T07:35:40.641Z,100532.16
2023-01-23T07:38:08.751Z,100536.84
2023-01-23T07:40:39.100Z,100535.56
2023-01-23T07:43:07.347Z,100549.16
2023-01-23T07:45:37.972Z,100546.47
2023-01-23T07:48:06.349Z,100532.47
2023-01-23T07:50:35.281Z,100533.59
2023-01-23T07:53:04.316Z,100538.38
2023-01-23T07:55:32.860Z,100542.03
2023-01-23T07:58:01.106Z,100524.16
2023-01-23T08:00:30.417Z,100533.22
2023-01-23T08:03:00.178Z,100536.34
2023-01-23T08:05:28.461Z,100525.97
2023-01-23T08:08:12.204Z,100539.44
2023-01-23T08:10:41.320Z,100535.94
2023-01-23T08:13:09.495Z,100538.50
2023-01-23T08:15:40.549Z,100534.72
2023-01-23T08:18:10.133Z,100551.41
2023-01-23T08:20:38.238Z,100549.03
2023-01-23T08:23:06.455Z,100552.06
2023-01-23T08:25:35.075Z,100567.69
2023-01-23T08:28:03.210Z,100554.97
2023-01-23T08:30:31.326Z,100557.88
2023-01-23T08:33:00.138Z,100554.38
2023-01-23T08:35:29.730Z,100554.06
2023-01-23T08:37:57.862Z,100567.97
2023-01-23T08:40:26.084Z,100562.34
2023-01-23T08:42:57.229Z,100561.69
2023-01-23T08:45:27.217Z,100569.63
2023-01-23T08:47:55.515Z,100567.19
2023-01-23T08:50:24.267Z,100570.16
2023-01-23T08:52:55.928Z,100575.38
2023-01-23T08:55:24.547Z,100573.28
2023-01-23T08:57:52.975Z,100570.66
2023-01-23T09:00:22.867Z,100565.97
2023-01-23T09:02:51.729Z,100583.56
2023-01-23T09:05:20.531Z,100577.03
2023-01-23T09:07:49.046Z,100567.69
2023-01-23T09:10:19.149Z,100564.56
2023-01-23T09:12:48.897Z,100567.50
2023-01-23T09:15:18.482Z,100565.13
2023-01-23T09:17:46.953Z,100564.66
2023-01-23T09:20:15.627Z,100559.09
2023-01-23T09:22:43.907Z,100557.75
2023-01-23T09:25:12.854Z,100539.47
2023-01-23T09:27:42.573Z,100524.56
2023-01-23T09:30:12.241Z,100538.25
2023-01-23T09:32:40.388Z,100548.81
2023-01-23T09:35:09.204Z,100556.41
2023-01-23T09:37:51.208Z,100557.81
2023-01-23T09:40:23.276Z,100555.56
2023-01-23T09:42:55.101Z,100557.31
2023-01-23T09:45:26.973Z,100567.69
2023-01-23T09:48:02.244Z,100550.22
2023-01-23T09:50:35.479Z,100564.78
2023-01-23T09:53:14.091Z,100555.78
2023-01-23T09:55:46.197Z,100566.53
2023-01-23T09:58:23.740Z,100559.34
2023-01-23T10:00:52.900Z,100561.75
2023-01-23T10:03:21.491Z,100560.16
2023-01-23T10:06:02.540Z,100532.53
2023-01-23T10:08:44.202Z,100554.63
2023-01-23T10:11:22.314Z,100554.16
2023-01-23T10:14:17.542Z,100526.53
2023-01-23T10:17:04.215Z,100533.00
2023-01-23T10:19:49.765Z,100547.13
2023-01-23T10:22:34.763Z,100533.75
2023-01-23T10:25:10.457Z,100544.88
2023-01-23T10:27:44.059Z,100540.31
2023-01-23T10:30:26.992Z,100542.91
2023-01-23T10:32:59.821Z,100530.81
2023-01-23T10:35:36.175Z,100530.53
2023-01-23T10:38:13.751Z,100537.00
2023-01-23T10:40:59.740Z,100520.69
2023-01-23T10:43:28.395Z,100521.47
2023-01-23T10:45:58.096Z,100533.28
2023-01-23T10:48:41.787Z,100521.13
2023-01-23T10:51:47.052Z,100525.53
2023-01-23T10:54:31.203Z,100510.31
2023-01-23T10:57:02.106Z,100508.25
2023-01-23T10:59:34.535Z,100514.94
2023-01-23T11:02:22.066Z,100526.28
2023-01-23T11:04:52.648Z,100519.59
2023-01-23T11:07:24.039Z,100527.69
2023-01-23T11:09:56.055Z,100517.56
2023-01-23T11:12:25.681Z,100524.56
2023-01-23T11:15:13.765Z,100530.09
2023-01-23T11:17:44.319Z,100520.41
2023-01-23T11:20:23.529Z,100520.75
2023-01-23T11:23:06.229Z,100502.47
2023-01-23T11:25:37.494Z,100518.56
2023-01-23T11:28:23.695Z,100511.03
2023-01-23T11:31:12.382Z,100509.22
2023-01-23T11:33:53.383Z,100507.56
2023-01-23T11:36:36.070Z,100520.31
2023-01-23T11:39:13.737Z,100516.59
2023-01-23T11:41:42.165Z,100529.09
2023-01-23T11:44:18.704Z,100521.00
2023-01-23T11:47:09.155Z,100524.97
2023-01-23T11:49:59.399Z,100520.03
2023-01-23T11:52:40.078Z,100524.81
2023-01-23T11:55:32.724Z,100532.59
2023-01-23T11:58:14.464Z,100526.22
2023-01-23T12:00:48.354Z,100538.91
2023-01-23T12:04:04.283Z,100522.78
2023-01-23T12:06:52.551Z,100535.81
2023-01-23T12:09:22.755Z,100543.00
2023-01-23T12:12:04.955Z,100538.13
2023-01-23T12:14:43.970Z,100524.81
2023-01-23T12:17:25.159Z,100527.94
2023-01-23T12:20:07.191Z,100530.19
2023-01-23T12:22:53.847Z,100543.88
2023-01-23T12:25:31.193Z,100538.69
2023-01-23T12:28:06.922Z,100532.78
2023-01-23T12:31:05.722Z,100531.16
2023-01-23T12:33:51.307Z,100537.25
2023-01-23T12:36:40.322Z,100542.16
2023-01-23T12:39:33.471Z,100549.81
2023-01-23T12:42:04.549Z,100548.84
2023-01-23T12:44:37.297Z,100554.34
2023-01-23T12:47:11.813Z,100566.09
2023-01-23T12:49:44.547Z,100571.13
2023-01-23T12:52:17.272Z,100562.25
2023-01-23T12:54:52.230Z,100577.97
2023-01-23T12:57:46.211Z,100570.16
2023-01-23T13:00:43.859Z,100559.38
2023-01-23T13:03:37.280Z,100568.25
2023-01-23T13:06:26.303Z,100566.06
2023-01-23T13:09:12.571Z,100564.28
2023-01-23T13:11:54.570Z,100563.56
2023-01-23T13:14:31.348Z,100566.06
2023-01-23T13:17:03.682Z,100572.94
2023-01-23T13:19:50.448Z,100575.56
2023-01-23T13:22:30.577Z,100556.41
2023-01-23T13:25:14.198Z,100562.19
2023-01-23T13:27:47.282Z,100554.59
2023-01-23T13:30:44.000Z,100561.56
2023-01-23T13:33:51.713Z,100563.09
2023-01-23T13:36:29.367Z,100567.78
2023-01-23T13:39:22.749Z,100556.19
2023-01-23T13:41:54.023Z,100578.94
2023-01-23T13:44:40.286Z,100581.66
2023-01-23T14:22:09.461Z,100602.50
2023-01-23T14:24:45.279Z,100593.91
2023-01-23T14:27:22.021Z,100598.91
2023-01-23T14:29:59.454Z,100599.31
2023-01-23T14:32:32.062Z,100603.50
2023-01-23T14:35:00.351Z,100605.41
2023-01-23T14:37:29.888Z,100608.66
2023-01-23T14:40:09.719Z,100608.78
2023-01-23T14:42:40.996Z,100598.41
2023-01-23T14:45:14.010Z,100605.69
2023-01-23T14:47:48.916Z,100601.50
2023-01-23T14:50:24.507Z,100613.50
2023-01-23T14:52:59.510Z,100620.03
2023-01-23T14:55:37.974Z,100625.53
2023-01-23T14:58:07.629Z,100625.53
2023-01-23T15:00:37.401Z,100630.94
2023-01-23T15:03:08.580Z,100629.25
2023-01-23T15:05:39.766Z,100616.88
2023-01-23T15:08:23.567Z,100626.03
2023-01-23T15:10:54.130Z,100637.72
2023-01-23T15:13:24.873Z,100635.09
2023-01-23T15:15:56.950Z,100624.81
2023-01-23T15:18:29.618Z,100634.50
2023-01-23T15:20:59.600Z,100630.91
2023-01-23T15:23:32.363Z,100628.13
2023-01-23T15:26:24.700Z,100627.34
2023-01-23T15:28:54.775Z,100640.69
2023-01-23T15:31:27.603Z,100635.41
2023-01-23T15:33:58.825Z,100627.13
2023-01-23T15:36:29.392Z,100640.00
2023-01-23T15:39:00.172Z,100646.31
2023-01-23T15:41:41.998Z,100648.41
2023-01-23T15:44:14.947Z,100646.50
2023-01-23T15:46:43.566Z,100656.34
2023-01-23T15:49:24.362Z,100659.69
2023-01-23T15:51:53.411Z,100656.53
2023-01-23T15:54:26.048Z,100679.72
2023-01-23T15:57:06.646Z,100671.56
2023-01-23T15:59:36.142Z,100671.56
2023-01-23T16:02:04.745Z,100681.13
2023-01-23T16:04:35.018Z,100676.88
2023-01-23T16:07:07.115Z,100689.19
2023-01-23T16:09:38.091Z,100680.13
2023-01-23T16:12:09.468Z,100682.50
2023-01-23T16:14:38.014Z,100689.41
2023-01-23T16:17:16.390Z,100683.16
2023-01-23T16:19:46.940Z,100681.50
2023-01-23T16:22:19.628Z,100694.53
2023-01-23T16:24:47.801Z,100692.94
2023-01-23T16:27:19.399Z,100690.78
2023-01-23T16:29:49.737Z,100696.94
2023-01-23T16:32:17.971Z,100702.72
2023-01-23T16:34:47.626Z,100702.53
2023-01-23T16:37:18.025Z,100709.34
2023-01-23T16:39:47.752Z,100708.72
2023-01-23T16:42:21.782Z,100709.28
2023-01-23T16:44:50.270Z,100714.72
2023-01-23T16:47:18.451Z,100712.81
2023-01-23T16:49:52.919Z,100714.09
2023-01-23T16:52:23.498Z,100718.88
2023-01-23T16:54:54.580Z,100717.47
2023-01-23T16:57:23.171Z,100715.75
2023-01-23T16:59:52.800Z,100723.59
2023-01-23T17:02:24.260Z,100724.91
2023-01-23T17:04:54.513Z,100728.03
2023-01-23T17:07:22.717Z,100729.72
2023-01-23T17:09:51.851Z,100733.00
2023-01-23T17:12:24.259Z,100720.34
2023-01-23T17:14:53.036Z,100734.59
2023-01-23T17:17:29.405Z,100731.09
2023-01-23T17:20:01.245Z,100733.47
2023-01-23T17:22:31.551Z,100736.75
2023-01-23T17:24:59.829Z,100733.22
2023-01-23T17:27:28.688Z,100728.69
2023-01-23T17:29:56.926Z,100728.81
2023-01-23T17:32:30.714Z,100733.13
2023-01-23T17:35:03.140Z,100732.66
2023-01-23T17:37:31.929Z,100741.19
2023-01-23T17:40:00.141Z,100731.59
2023-01-23T17:42:28.380Z,100739.44
2023-01-23T17:44:56.644Z,100747.16
2023-01-23T17:47:25.683Z,100750.44
2023-01-23T17:49:55.581Z,100748.84
2023-01-23T17:52:26.765Z,100752.84
2023-01-23T17:54:54.857Z,100755.16
2023-01-23T17:57:23.100Z,100754.59
2023-01-23T17:59:51.182Z,100748.09
2023-01-23T18:02:28.815Z,100745.19
2023-01-23T18:04:57.381Z,100745.63
2023-01-23T18:07:28.335Z,100759.16
2023-01-23T18:09:56.536Z,100754.72
2023-01-23T18:12:31.973Z,100745.31
2023-01-23T18:15:10.453Z,100748.00
2023-01-23T18:18:36.054Z,100749.44
2023-01-23T18:21:39.927Z,100759.50
2023-01-23T18:28:14.853Z,100749.91
2023-01-23T18:30:52.339Z,100744.94
2023-01-23T18:33:35.805Z,100750.75
2023-01-23T18:36:35.513Z,100755.75
2023-01-23T18:39:32.301Z,100753.50
2023-01-23T18:42:12.747Z,100753.75
2023-01-23T18:44:48.218Z,100752.66
2023-01-23T18:47:17.135Z,100754.03
2023-01-23T18:49:46.148Z,100762.16
2023-01-23T18:52:18.462Z,100771.66
2023-01-23T18:54:54.498Z,100771.78
2023-01-23T18:57:50.806Z,100779.56
2023-01-23T19:00:26.994Z,100776.25
2023-01-23T19:02:59.221Z,100772.59
2023-01-23T19:05:30.310Z,100780.66
2023-01-23T19:08:00.018Z,100781.50
2023-01-23T19:10:32.487Z,100779.19
2023-01-23T19:13:19.060Z,100787.78
2023-01-23T19:15:57.332Z,100790.31
2023-01-23T19:18:47.499Z,100786.88
2023-01-23T19:21:20.450Z,100796.25
2023-01-23T19:23:56.517Z,100802.25
2023-01-23T19:26:28.391Z,100797.44
2023-01-23T19:28:59.697Z,100805.13
2023-01-23T19:31:33.041Z,100804.59
2023-01-23T19:34:02.151Z,100804.84
2023-01-23T19:36:36.178Z,100814.25
2023-01-23T19:39:07.014Z,100814.59
2023-01-23T19:41:42.677Z,100814.06
2023-01-23T19:44:14.294Z,100813.06
2023-01-23T19:46:46.161Z,100820.94
2023-01-23T19:49:15.710Z,100820.22
2023-01-23T19:51:44.483Z,100825.31
2023-01-23T19:54:14.941Z,100822.88
2023-01-23T19:56:43.600Z,100820.31
2023-01-23T19:59:19.789Z,100821.69
2023-01-23T20:01:52.514Z,100815.72
2023-01-23T20:04:23.311Z,100827.88
2023-01-23T20:06:52.256Z,100822.56
2023-01-23T20:09:20.935Z,100823.63
2023-01-23T20:11:49.576Z,100817.44
2023-01-23T20:14:18.221Z,100821.81
2023-01-23T20:16:46.695Z,100819.09
2023-01-23T20:19:16.924Z,100823.94
2023-01-23T20:21:47.664Z,100826.06
2023-01-23T20:24:16.877Z,100827.75
2023-01-23T20:26:46.448Z,100830.94
2023-01-23T20:29:14.821Z,100829.91
2023-01-23T20:31:43.407Z,100826.94
2023-01-23T20:34:14.734Z,100830.44
2023-01-23T20:36:45.969Z,100826.13
2023-01-23T20:39:15.386Z,100822.97
2023-01-23T20:41:43.441Z,100823.53
2023-01-23T20:44:12.756Z,100824.31
2023-01-23T20:46:41.419Z,100824.88
2023-01-23T20:49:12.128Z,100826.22
2023-01-23T20:51:41.419Z,100820.81
2023-01-23T20:54:10.343Z,100826.41
2023-01-23T20:56:39.564Z,100825.91
2023-01-23T20:59:18.909Z,100834.28
2023-01-23T21:02:04.662Z,100823.31
2023-01-23T21:04:35.328Z,100828.97
2023-01-23T21:07:05.248Z,100841.59
2023-01-23T21:09:35.093Z,100840.00
2023-01-23T21:12:06.624Z,100844.31
2023-01-23T21:14:35.671Z,100827.94
2023-01-23T21:17:05.881Z,100841.34
2023-01-23T21:19:34.973Z,100836.50
2023-01-23T21:22:03.517Z,100848.31
2023-01-23T21:24:34.420Z,100845.41
2023-01-23T21:27:06.103Z,100845.72
2023-01-23T21:29:35.303Z,100846.50
2023-01-23T21:32:03.586Z,100847.84
2023-01-23T21:34:32.300Z,100854.78
2023-01-23T21:37:00.884Z,100845.41
2023-01-23T21:39:29.069Z,100848.34
2023-01-23T21:41:57.219Z,100853.19
2023-01-23T21:44:26.825Z,100847.81
2023-01-23T21:46:54.967Z,100838.66
2023-01-23T21:49:23.122Z,100842.69
2023-01-23T21:51:51.133Z,100835.75
2023-01-23T21:54:19.246Z,100839.50
2023-01-23T21:56:47.285Z,100837.91
2023-01-23T21:59:20.162Z,100838.44
2023-01-23T22:01:48.828Z,100836.03
2023-01-23T22:04:18.649Z,100833.06
2023-01-23T22:06:47.341Z,100834.88
2023-01-23T22:09:17.481Z,100836.47
2023-01-23T22:11:46.040Z,100830.59
2023-01-23T22:14:14.461Z,100830.03
2023-01-23T22:16:49.103Z,100827.81
2023-01-23T22:19:24.212Z,100832.66
2023-01-23T22:21:53.793Z,100829.50
2023-01-23T22:24:22.119Z,100832.78
2023-01-23T22:26:50.498Z,100833.88
2023-01-23T22:29:18.902Z,100831.47
2023-01-23T22:31:47.132Z,100831.69
2023-01-23T22:34:15.435Z,100829.66
2023-01-23T22:36:45.249Z,100830.63
2023-01-23T22:39:16.187Z,100821.00
2023-01-23T22:41:46.402Z,100817.50
2023-01-23T22:44:14.776Z,100820.44
2023-01-23T22:46:43.133Z,100821.25
2023-01-23T22:49:11.562Z,100823.13
2023-01-23T22:51:39.730Z,100817.78
2023-01-23T22:54:09.334Z,100818.91
2023-01-23T22:56:37.748Z,100817.56
2023-01-23T22:59:06.262Z,100817.59
2023-01-23T23:01:34.514Z,100814.09
2023-01-23T23:04:02.725Z,100817.59
2023-01-23T23:06:31.023Z,100814.94
2023-01-23T23:08:59.116Z,100810.91
2023-01-23T23:11:29.558Z,100811.47
2023-01-23T23:13:57.908Z,100816.84
2023-01-23T23:16:29.038Z,100811.22
2023-01-23T23:19:00.202Z,100820.94
2023-01-23T23:21:31.699Z,100818.00
2023-01-23T23:24:01.939Z,100821.72
2023-01-23T23:26:32.116Z,100808.00
2023-01-23T23:29:00.928Z,100826.03
2023-01-23T23:31:29.393Z,100819.88
2023-01-23T23:33:57.623Z,100822.03
2023-01-23T23:36:25.762Z,100827.09
2023-01-23T23:38:53.874Z,100822.88
2023-01-23T23:41:22.104Z,100827.47
2023-01-23T23:43:51.590Z,100819.66
2023-01-23T23:46:20.292Z,100828.75
2023-01-23T23:48:48.353Z,100821.75
2023-01-23T23:51:19.018Z,100828.75
2023-01-23T23:53:47.709Z,100837.41
2023-01-23T23:56:21.425Z,100833.13
2023-01-23T23:58:51.573Z,100837.16
